createdAt,value
2019-04-22T00:01:31.233Z,56.40
2019-04-22T00:04:04.840Z,56.60
2019-04-22T00:06:51.635Z,56.80
2019-04-22T00:09:24.002Z,57.10
2019-04-22T00:11:54.868Z,57.40
2019-04-22T00:14:11.666Z,57.60
2019-04-22T00:16:54.781Z,58.00
2019-04-22T00:19:22.625Z,58.20
2019-04-22T00:21:55.988Z,58.50
2019-04-22T00:24:17.103Z,58.70
2019-04-22T00:26:50.007Z,59.10
2019-04-22T00:31:52.875Z,60.30
2019-04-22T00:34:24.084Z,59.60
2019-04-22T00:36:58.663Z,60.00
2019-04-22T00:39:31.732Z,60.20
2019-04-22T00:41:56.961Z,61.30
2019-04-22T00:44:28.430Z,61.00
2019-04-22T00:46:52.531Z,61.50
2019-04-22T00:52:01.117Z,62.20
2019-04-22T00:54:21.481Z,62.50
2019-04-22T00:56:48.175Z,63.00
2019-04-22T00:59:22.072Z,63.20
2019-04-22T01:01:58.885Z,63.60
2019-04-22T01:04:33.484Z,63.80
2019-04-22T01:06:55.643Z,64.10
2019-04-22T01:09:17.325Z,64.40
2019-04-22T01:11:44.593Z,64.60
2019-04-22T01:14:16.083Z,64.70
2019-04-22T01:16:52.131Z,65.00
2019-04-22T01:19:19.897Z,65.20
2019-04-22T01:21:43.576Z,65.70
2019-04-22T01:24:17.784Z,65.90
2019-04-22T01:26:38.892Z,66.30
2019-04-22T01:29:07.719Z,66.50
2019-04-22T01:31:28.473Z,66.70
2019-04-22T01:34:07.900Z,67.00
2019-04-22T01:36:42.807Z,67.40
2019-04-22T01:39:18.067Z,67.50
2019-04-22T01:41:55.039Z,67.90
2019-04-22T01:44:27.934Z,68.10
2019-04-22T01:46:50.718Z,68.30
2019-04-22T01:49:25.698Z,68.60
2019-04-22T01:56:55.292Z,69.50
2019-04-22T01:59:18.314Z,69.60
2019-04-22T02:01:52.823Z,70.60
2019-04-22T02:04:26.959Z,70.00
2019-04-22T02:06:52.373Z,70.20
2019-04-22T02:09:24.498Z,70.40
2019-04-22T02:12:05.949Z,70.50
2019-04-22T02:14:19.904Z,70.80
2019-04-22T02:16:50.288Z,70.90
2019-04-22T02:19:24.417Z,71.00
2019-04-22T02:21:51.171Z,71.30
2019-04-22T02:24:28.265Z,71.50
2019-04-22T02:26:51.950Z,71.70
2019-04-22T02:29:24.702Z,72.10
2019-04-22T02:31:58.891Z,72.10
2019-04-22T02:39:23.693Z,72.70
2019-04-22T02:41:54.846Z,73.00
2019-04-22T02:49:25.311Z,73.70
2019-04-22T02:52:14.547Z,73.90
2019-04-22T02:56:54.267Z,74.30
2019-04-22T02:59:34.607Z,74.40
2019-04-22T03:04:31.882Z,74.90
2019-04-22T03:06:55.409Z,75.10
2019-04-22T03:12:21.549Z,75.40
2019-04-22T03:17:10.974Z,75.50
2019-04-22T03:19:57.565Z,75.60
2019-04-22T03:22:08.244Z,75.80
2019-04-22T03:24:37.684Z,76.00
2019-04-22T03:30:18.816Z,76.30
2019-04-22T03:35:30.939Z,76.50
2019-04-22T03:40:04.630Z,76.60
2019-04-22T03:42:21.482Z,76.70
2019-04-22T03:45:17.000Z,76.70
2019-04-22T03:50:04.172Z,76.70
2019-04-22T03:52:30.974Z,76.60
2019-04-22T03:55:03.229Z,76.40
2019-04-22T03:59:56.816Z,76.30
2019-04-22T04:05:22.210Z,76.30
2019-04-22T04:10:13.042Z,76.30
2019-04-22T04:12:38.214Z,76.30
2019-04-22T04:17:41.432Z,76.30
2019-04-22T04:37:52.108Z,75.00
2019-04-22T04:45:33.756Z,74.00
2019-04-22T04:52:50.796Z,73.20
2019-04-22T04:55:18.511Z,73.00
2019-04-22T04:57:45.368Z,72.60
2019-04-22T05:02:46.688Z,72.10
2019-04-22T05:05:12.262Z,72.10
2019-04-22T05:10:39.147Z,71.90
2019-04-22T05:15:11.216Z,71.90
2019-04-22T05:20:12.809Z,71.80
2019-04-22T05:22:33.652Z,71.70
2019-04-22T05:25:06.608Z,71.70
2019-04-22T05:32:40.073Z,71.60
2019-04-22T05:35:09.619Z,71.80
2019-04-22T05:40:16.710Z,71.60
2019-04-22T05:42:30.996Z,71.70
2019-04-22T05:45:11.972Z,71.80
2019-04-22T05:47:32.340Z,71.90
2019-04-22T05:50:08.201Z,71.90
2019-04-22T05:52:43.533Z,72.10
2019-04-22T05:55:16.678Z,72.20
2019-04-22T05:57:38.864Z,72.10
2019-04-22T06:00:14.573Z,71.90
2019-04-22T06:02:53.078Z,71.50
2019-04-22T06:05:31.951Z,71.50
2019-04-22T06:07:47.205Z,71.20
2019-04-22T06:12:43.379Z,71.30
2019-04-22T06:15:19.456Z,71.10
2019-04-22T06:17:57.506Z,70.70
2019-04-22T06:20:28.581Z,65.60
2019-04-22T06:25:28.248Z,48.70
2019-04-22T06:28:13.616Z,41.30
2019-04-22T06:30:23.391Z,36.90
2019-04-22T06:32:53.430Z,33.70
2019-04-22T06:35:36.298Z,31.50
2019-04-22T06:38:12.508Z,30.20
2019-04-22T06:40:23.700Z,29.60
2019-04-22T06:42:56.614Z,28.20
2019-04-22T06:45:18.979Z,27.20
2019-04-22T06:50:24.482Z,26.20
2019-04-22T06:52:52.412Z,26.30
2019-04-22T06:55:20.899Z,25.80
2019-04-22T06:57:51.109Z,25.20
2019-04-22T07:00:24.535Z,25.00
2019-04-22T07:03:13.743Z,24.30
2019-04-22T07:05:21.724Z,23.40
2019-04-22T07:08:02.800Z,23.20
2019-04-22T07:10:28.517Z,22.60
2019-04-22T07:12:49.785Z,21.80
2019-04-22T07:15:35.494Z,21.50
2019-04-22T07:17:56.843Z,21.80
2019-04-22T07:20:27.239Z,22.30
2019-04-22T07:22:59.953Z,22.70
2019-04-22T07:25:23.444Z,23.00
2019-04-22T07:28:00.429Z,23.40
2019-04-22T07:30:26.925Z,22.90
2019-04-22T07:35:28.598Z,23.20
2019-04-22T07:38:00.595Z,23.50
2019-04-22T07:40:37.279Z,23.40
2019-04-22T07:43:02.502Z,23.40
2019-04-22T07:45:29.982Z,24.90
2019-04-22T07:48:04.709Z,26.10
2019-04-22T07:52:52.053Z,27.10
2019-04-22T07:55:29.354Z,28.10
2019-04-22T07:58:01.876Z,27.60
2019-04-22T08:00:29.242Z,26.80
2019-04-22T08:03:01.304Z,25.00
2019-04-22T08:08:05.499Z,22.20
2019-04-22T08:10:35.677Z,21.30
2019-04-22T08:12:58.101Z,22.80
2019-04-22T08:15:27.754Z,25.80
2019-04-22T08:18:06.923Z,29.40
2019-04-22T08:20:28.897Z,33.10
2019-04-22T08:23:07.349Z,35.90
2019-04-22T08:25:33.463Z,38.00
2019-04-22T08:28:05.786Z,40.30
2019-04-22T08:30:35.015Z,41.00
2019-04-22T08:33:09.648Z,42.00
2019-04-22T08:40:36.401Z,41.00
2019-04-22T08:43:14.114Z,41.40
2019-04-22T08:45:39.031Z,41.90
2019-04-22T08:48:01.742Z,41.90
2019-04-22T08:50:33.483Z,39.40
2019-04-22T08:53:11.094Z,38.30
2019-04-22T08:55:36.398Z,38.00
2019-04-22T08:58:21.385Z,37.10
2019-04-22T09:00:44.512Z,36.90
2019-04-22T09:03:10.690Z,36.30
2019-04-22T09:05:55.380Z,35.90
2019-04-22T09:08:32.198Z,35.50
2019-04-22T09:10:44.683Z,36.00
2019-04-22T09:13:18.598Z,36.90
2019-04-22T09:15:42.434Z,39.40
2019-04-22T09:18:14.776Z,39.10
2019-04-22T09:20:48.632Z,39.30
2019-04-22T09:23:26.943Z,36.10
2019-04-22T09:25:51.183Z,32.70
2019-04-22T09:28:17.293Z,31.90
2019-04-22T09:30:59.648Z,34.20
2019-04-22T09:33:25.795Z,35.70
2019-04-22T09:36:00.150Z,37.30
2019-04-22T09:38:33.194Z,35.90
2019-04-22T09:40:55.259Z,35.40
2019-04-22T09:43:27.456Z,34.30
2019-04-22T09:45:52.951Z,32.70
2019-04-22T09:48:23.711Z,30.00
2019-04-22T09:50:48.175Z,28.00
2019-04-22T09:53:25.441Z,26.70
2019-04-22T09:55:50.028Z,27.60
2019-04-22T09:58:26.545Z,27.50
2019-04-22T10:01:15.561Z,28.60
2019-04-22T10:03:48.166Z,29.10
2019-04-22T10:06:19.366Z,29.30
2019-04-22T10:08:53.622Z,28.60
2019-04-22T10:11:13.135Z,27.80
2019-04-22T10:13:47.661Z,29.30
2019-04-22T10:16:22.674Z,29.40
2019-04-22T10:18:46.437Z,27.40
2019-04-22T10:21:18.850Z,26.30
2019-04-22T10:23:45.813Z,25.50
2019-04-22T10:26:22.320Z,24.00
2019-04-22T10:28:59.462Z,23.10
2019-04-22T10:31:21.925Z,22.70
2019-04-22T10:33:44.104Z,22.00
2019-04-22T10:35:55.338Z,21.50
2019-04-22T10:38:24.109Z,20.80
2019-04-22T10:40:54.454Z,20.20
2019-04-22T10:43:25.321Z,19.60
2019-04-22T10:45:54.497Z,19.40
2019-04-22T10:48:24.096Z,19.80
2019-04-22T10:50:52.715Z,20.00
2019-04-22T10:53:21.696Z,20.50
2019-04-22T10:55:51.512Z,20.20
2019-04-22T10:58:20.823Z,20.80
2019-04-22T11:00:50.263Z,21.60
2019-04-22T11:03:20.147Z,22.40
2019-04-22T11:05:48.498Z,23.00
2019-04-22T11:08:25.607Z,23.30
2019-04-22T11:11:04.753Z,23.60
2019-04-22T11:13:20.134Z,24.00
2019-04-22T11:15:48.799Z,25.10
2019-04-22T11:18:17.827Z,27.10
2019-04-22T11:20:47.356Z,29.10
2019-04-22T11:23:16.758Z,31.00
2019-04-22T11:25:46.202Z,32.70
2019-04-22T11:28:15.868Z,34.40
2019-04-22T11:30:44.695Z,35.80
2019-04-22T11:33:14.303Z,37.20
2019-04-22T11:35:43.789Z,38.60
2019-04-22T11:38:12.903Z,39.40
2019-04-22T11:40:46.302Z,40.00
2019-04-22T11:43:12.477Z,39.80
2019-04-22T11:45:41.570Z,40.10
2019-04-22T11:48:17.492Z,40.70
2019-04-22T11:50:46.537Z,41.10
2019-04-22T11:53:16.577Z,41.60
2019-04-22T11:55:46.717Z,42.20
2019-04-22T11:58:15.037Z,42.60
2019-04-22T12:00:45.200Z,42.90
2019-04-22T12:03:14.737Z,43.00
2019-04-22T12:05:43.912Z,42.90
2019-04-22T12:08:15.495Z,43.10
2019-04-22T12:10:50.694Z,42.70
2019-04-22T12:13:13.654Z,42.90
2019-04-22T12:15:42.804Z,42.30
2019-04-22T12:18:11.321Z,42.40
2019-04-22T12:20:39.360Z,43.00
2019-04-22T12:23:07.554Z,43.10
2019-04-22T12:25:46.487Z,43.20
2019-04-22T12:28:05.618Z,43.50
2019-04-22T12:30:35.212Z,44.20
2019-04-22T12:33:04.662Z,44.00
2019-04-22T12:35:34.625Z,44.00
2019-04-22T12:38:07.178Z,44.30
2019-04-22T12:40:44.739Z,44.60
2019-04-22T12:43:06.665Z,44.20
2019-04-22T12:45:36.334Z,43.90
2019-04-22T12:48:04.406Z,43.00
2019-04-22T12:50:35.755Z,43.10
2019-04-22T12:53:08.453Z,43.70
2019-04-22T12:55:32.408Z,44.10
2019-04-22T12:58:02.731Z,44.60
2019-04-22T13:00:30.548Z,44.60
2019-04-22T13:02:58.916Z,44.30
2019-04-22T13:05:27.189Z,43.50
2019-04-22T13:07:55.785Z,43.10
2019-04-22T13:10:24.196Z,42.60
2019-04-22T13:12:53.031Z,42.40
2019-04-22T13:15:22.155Z,41.90
2019-04-22T13:18:04.437Z,41.90
2019-04-22T13:20:22.033Z,42.20
2019-04-22T13:22:50.568Z,42.10
2019-04-22T13:25:20.720Z,42.30
2019-04-22T13:27:49.106Z,42.20
2019-04-22T13:30:18.630Z,42.20
2019-04-22T13:32:49.119Z,41.60
2019-04-22T13:35:20.025Z,41.70
2019-04-22T13:37:48.708Z,42.50
2019-04-22T13:40:21.015Z,42.40
2019-04-22T13:42:51.080Z,42.60
2019-04-22T13:45:20.012Z,42.40
2019-04-22T13:48:05.641Z,42.00
2019-04-22T13:50:49.529Z,41.50
2019-04-22T13:53:30.074Z,41.70
2019-04-22T13:55:45.464Z,41.70
2019-04-22T13:58:04.210Z,41.10
2019-04-22T14:00:27.046Z,41.90
2019-04-22T14:02:57.961Z,42.20
2019-04-22T14:05:28.933Z,42.80
2019-04-22T14:07:57.563Z,41.50
2019-04-22T14:10:28.065Z,42.30
2019-04-22T14:12:57.115Z,41.70
2019-04-22T14:15:29.749Z,41.00
2019-04-22T14:17:58.790Z,40.90
2019-04-22T14:20:29.123Z,41.40
2019-04-22T14:22:56.779Z,41.90
2019-04-22T14:25:28.480Z,42.10
2019-04-22T14:28:06.385Z,41.90
2019-04-22T14:30:30.623Z,41.80
2019-04-22T14:33:02.709Z,42.20
2019-04-22T14:35:31.887Z,42.30
2019-04-22T14:38:01.529Z,42.40
2019-04-22T14:40:32.412Z,42.60
2019-04-22T14:43:24.748Z,42.40
2019-04-22T14:48:35.990Z,41.70
2019-04-22T14:50:59.122Z,41.60
2019-04-22T14:53:26.028Z,41.50
2019-04-22T14:55:38.516Z,42.00
2019-04-22T14:58:09.106Z,42.90
2019-04-22T15:00:38.171Z,43.50
2019-04-22T15:03:07.909Z,43.90
2019-04-22T15:05:36.519Z,44.20
2019-04-22T15:08:04.571Z,44.10
2019-04-22T15:10:33.748Z,43.90
2019-04-22T15:13:03.066Z,43.70
2019-04-22T15:15:51.146Z,43.40
2019-04-22T15:18:20.017Z,43.50
2019-04-22T15:20:58.903Z,43.30
2019-04-22T15:23:31.029Z,42.20
2019-04-22T15:26:02.343Z,40.50
2019-04-22T15:28:31.484Z,39.70
2019-04-22T15:31:01.501Z,39.60
2019-04-22T15:33:30.119Z,40.10
2019-04-22T15:35:58.995Z,38.90
2019-04-22T15:38:28.267Z,38.30
2019-04-22T15:40:56.643Z,38.20
2019-04-22T15:43:27.963Z,38.30
2019-04-22T15:45:54.888Z,38.50
2019-04-22T15:48:23.271Z,39.20
2019-04-22T15:50:52.822Z,40.00
2019-04-22T15:53:22.051Z,41.00
2019-04-22T15:55:50.428Z,42.10
2019-04-22T15:58:19.778Z,42.70
2019-04-22T16:00:57.738Z,43.30
2019-04-22T16:03:18.622Z,43.70
2019-04-22T16:05:48.003Z,43.80
2019-04-22T16:08:19.031Z,44.00
2019-04-22T16:10:48.184Z,44.10
2019-04-22T16:13:22.428Z,43.50
2019-04-22T16:15:46.753Z,43.20
2019-04-22T16:18:15.236Z,42.50
2019-04-22T16:20:43.911Z,42.30
2019-04-22T16:23:23.971Z,42.10
2019-04-22T16:26:01.067Z,42.30
2019-04-22T16:28:29.367Z,42.20
2019-04-22T16:30:57.793Z,42.20
2019-04-22T16:33:27.800Z,42.20
2019-04-22T16:35:55.906Z,43.20
2019-04-22T16:38:24.774Z,42.70
2019-04-22T16:40:52.921Z,42.90
2019-04-22T16:43:20.888Z,43.00
2019-04-22T16:45:51.801Z,43.80
2019-04-22T16:48:21.924Z,43.00
2019-04-22T16:50:52.817Z,42.90
2019-04-22T16:53:20.910Z,43.10
2019-04-22T16:55:49.055Z,43.20
2019-04-22T16:58:17.013Z,43.20
2019-04-22T17:00:46.823Z,42.90
2019-04-22T17:03:20.565Z,42.80
2019-04-22T17:06:07.926Z,42.80
2019-04-22T17:08:37.010Z,42.70
2019-04-22T17:11:05.473Z,42.80
2019-04-22T17:13:36.652Z,42.80
2019-04-22T17:16:04.862Z,43.00
2019-04-22T17:18:33.112Z,43.50
2019-04-22T17:21:03.708Z,43.70
2019-04-22T17:23:35.849Z,43.50
2019-04-22T17:26:03.981Z,43.80
2019-04-22T17:28:33.701Z,44.00
2019-04-22T17:31:04.547Z,44.40
2019-04-22T17:33:34.989Z,44.70
2019-04-22T17:36:03.359Z,45.40
2019-04-22T17:38:43.388Z,45.60
2019-04-22T17:41:11.621Z,46.30
2019-04-22T17:43:53.803Z,46.70
2019-04-22T17:46:35.060Z,47.10
2019-04-22T17:49:10.230Z,47.40
2019-04-22T17:51:47.715Z,47.80
2019-04-22T17:54:17.132Z,48.20
2019-04-22T17:56:47.179Z,48.50
2019-04-22T17:59:17.152Z,48.70
2019-04-22T18:01:40.282Z,48.90
2019-04-22T18:03:57.100Z,49.00
2019-04-22T18:06:48.917Z,49.00
2019-04-22T18:09:14.627Z,49.10
2019-04-22T18:11:47.975Z,49.30
2019-04-22T18:14:33.024Z,49.30
2019-04-22T18:16:43.051Z,50.00
2019-04-22T18:19:16.717Z,49.50
2019-04-22T18:21:41.890Z,49.60
2019-04-22T18:24:06.782Z,49.70
2019-04-22T18:26:43.614Z,49.80
2019-04-22T18:29:11.576Z,49.70
2019-04-22T18:31:35.914Z,49.80
2019-04-22T18:34:06.911Z,50.00
2019-04-22T18:36:40.476Z,50.10
2019-04-22T18:39:21.316Z,50.40
2019-04-22T18:41:47.094Z,50.40
2019-04-22T18:44:21.785Z,50.50
2019-04-22T18:46:40.676Z,50.50
2019-04-22T18:49:11.151Z,50.40
2019-04-22T18:51:54.410Z,50.40
2019-04-22T18:54:30.947Z,50.30
2019-04-22T18:57:07.738Z,50.20
2019-04-22T18:59:22.532Z,50.20
2019-04-22T19:01:48.018Z,50.20
2019-04-22T19:04:22.041Z,50.30
2019-04-22T19:07:07.481Z,50.30
2019-04-22T19:09:41.425Z,50.50
2019-04-22T19:12:22.152Z,50.60
2019-04-22T19:14:47.581Z,50.70
2019-04-22T19:17:21.462Z,50.80
2019-04-22T19:19:43.644Z,51.00
2019-04-22T19:22:07.388Z,51.00
2019-04-22T19:24:37.177Z,51.10
2019-04-22T19:27:09.000Z,51.20
2019-04-22T19:29:39.966Z,51.40
2019-04-22T19:32:07.027Z,51.50
2019-04-22T19:34:36.783Z,51.40
2019-04-22T19:37:11.772Z,51.50
2019-04-22T19:39:33.089Z,51.60
2019-04-22T19:42:12.452Z,51.70
2019-04-22T19:44:41.171Z,51.80
2019-04-22T19:47:21.112Z,51.90
2019-04-22T19:49:45.458Z,51.90
2019-04-22T19:52:11.431Z,52.00
2019-04-22T19:54:35.753Z,52.10
2019-04-22T19:56:59.096Z,52.20
2019-04-22T19:59:25.092Z,52.20
2019-04-22T20:02:06.062Z,52.30
2019-04-22T20:04:49.413Z,52.30
2019-04-22T20:07:08.636Z,52.30
2019-04-22T20:09:43.721Z,53.20
2019-04-22T20:14:46.375Z,52.50
2019-04-22T20:17:11.427Z,52.70
2019-04-22T20:19:50.198Z,52.70
2019-04-22T20:22:12.706Z,52.80
2019-04-22T20:24:28.197Z,52.80
2019-04-22T20:27:14.922Z,52.80
2019-04-22T20:29:42.182Z,52.80
2019-04-22T20:32:15.890Z,52.70
2019-04-22T20:34:44.557Z,52.80
2019-04-22T20:37:15.483Z,53.00
2019-04-22T20:39:43.775Z,53.10
2019-04-22T20:42:23.501Z,53.00
2019-04-22T20:44:46.037Z,53.30
2019-04-22T20:47:09.137Z,53.20
2019-04-22T20:49:48.769Z,53.30
2019-04-22T20:54:44.984Z,53.40
2019-04-22T20:57:19.176Z,53.40
2019-04-22T20:59:44.235Z,53.40
2019-04-22T21:02:14.139Z,53.30
2019-04-22T21:04:38.348Z,53.30
2019-04-22T21:07:15.067Z,53.40
2019-04-22T21:09:43.078Z,53.20
2019-04-22T21:12:09.054Z,53.00
2019-04-22T21:14:46.031Z,53.00
2019-04-22T21:17:17.277Z,53.00
2019-04-22T21:19:54.370Z,52.90
2019-04-22T21:22:24.230Z,52.80
2019-04-22T21:24:45.993Z,52.70
2019-04-22T21:27:24.822Z,52.90
2019-04-22T21:29:43.513Z,52.70
2019-04-22T21:32:18.646Z,52.70
2019-04-22T21:34:52.848Z,52.50
2019-04-22T21:37:20.629Z,52.40
2019-04-22T21:39:44.320Z,52.60
2019-04-22T21:42:15.935Z,52.50
2019-04-22T21:44:44.106Z,52.50
2019-04-22T21:47:23.800Z,52.40
2019-04-22T21:49:55.070Z,52.50
2019-04-22T21:52:18.897Z,52.40
2019-04-22T21:54:53.891Z,52.30
2019-04-22T21:57:24.600Z,52.40
2019-04-22T21:59:47.424Z,52.40
2019-04-22T22:02:28.320Z,52.30
2019-04-22T22:04:47.246Z,52.40
2019-04-22T22:07:12.953Z,52.30
2019-04-22T22:09:54.254Z,52.40
2019-04-22T22:12:24.282Z,52.50
2019-04-22T22:15:00.427Z,52.40
2019-04-22T22:17:25.236Z,52.40
2019-04-22T22:19:48.546Z,52.70
2019-04-22T22:24:52.931Z,52.90
2019-04-22T22:27:18.764Z,53.00
2019-04-22T22:29:58.528Z,53.20
2019-04-22T22:32:26.006Z,53.30
2019-04-22T22:34:50.781Z,53.30
2019-04-22T22:37:11.297Z,53.30
2019-04-22T22:39:40.427Z,53.40
2019-04-22T22:41:59.620Z,53.50
2019-04-22T22:44:35.757Z,53.70
2019-04-22T22:47:16.305Z,53.70
2019-04-22T22:49:48.292Z,53.70
2019-04-22T22:52:45.222Z,53.70
2019-04-22T22:54:46.382Z,53.80
2019-04-22T22:57:21.438Z,53.70
2019-04-22T22:59:51.258Z,53.80
2019-04-22T23:02:20.276Z,53.80
2019-04-22T23:04:55.846Z,53.70
2019-04-22T23:07:26.997Z,53.50
2019-04-22T23:09:48.783Z,53.50
2019-04-22T23:12:30.623Z,53.40
2019-04-22T23:14:52.797Z,53.50
2019-04-22T23:17:03.928Z,53.40
2019-04-22T23:19:26.042Z,53.40
2019-04-22T23:21:58.779Z,53.50
2019-04-22T23:24:44.009Z,53.40
2019-04-22T23:27:17.913Z,53.40
2019-04-22T23:29:43.404Z,53.50
2019-04-22T23:32:17.673Z,53.30
2019-04-22T23:34:58.713Z,53.10
2019-04-22T23:37:29.009Z,53.10
2019-04-22T23:40:15.831Z,53.10
2019-04-22T23:42:36.485Z,53.20
2019-04-22T23:45:12.292Z,53.10
2019-04-22T23:47:35.016Z,53.30
2019-04-22T23:50:14.531Z,53.00
2019-04-22T23:52:47.929Z,52.90
2019-04-22T23:55:20.450Z,53.00
2019-04-22T23:57:53.280Z,53.10
